Saint Helena, CA

5:58 PM PST on February 11, 2016 (GMT -0800)
Conn Valley Rd. | | Change Station
CLOSE
Current Station
Personal Weather Station
Location: Saint Helena, CA
Elevation: 456 ft
Nearby Weather Stations

Elev 456 ft 38.52 °N, 122.43 °W | Updated 4 seconds ago

Partly Cloudy
Partly Cloudy
61.0 °F
Feels Like 61.0 °F
N
3.4
Wind Variable Wind from NW
Gusts 4.9 mph

Today
High -- | Low -- °F
--% Chance of Precip.
Yesterday
High -- | Low -- °F
Precip. -- in
Pressure 30.11 in
Visibility 10.0 miles
Clouds Scattered Clouds 20000 ft
Dew Point 54 °F
Humidity 79%
Rainfall 0.00 in
Snow Depth Not available.
7:05 AM 5:42 PM
Waxing Crescent, 16% visible
METAR KSTS 120153Z 17004KT 10SM SCT200 18/10 A3012 RMK AO2 SLP194 T01780100
Pressure 30.11 in
Visibility 10.0 miles
Clouds Scattered Clouds 20000 ft
Dew Point 54 °F
Humidity 79%
Rainfall 0.00 in
Snow Depth Not available.
7:05 AM 5:42 PM
Waxing Crescent, 16% visible
METAR KSTS 120153Z 17004KT 10SM SCT200 18/10 A3012 RMK AO2 SLP194 T01780100

10-Day Weather Forecast

Almanac

Astronomy

Feb. 11, 2016 Rise Set
Actual Time
Civil Twilight
Nautical Twilight
Astronomical Twilight
Moon
Length of Visible Light
Length of Day
Tomorrow will be .
, % of the Moon is Illuminated

Today's Extremes

State Highs State Lows

Community

WunderPhotos

Upload Photos

1,892,207 photos uploaded!

WunderBlog® & News

Nearby

Air Quality

  Air Quality AQ Index Pollutant
Not available.

Snow Depth

Station Depth Elevation

Earthquake Activity

City Distance Mag. Time & Date
Minimum magnitude displayed is 2.5.

Coastal Water Temperatures

Place Temperature

Stations

Nearby Weather Stations

Station Location Temp. Windchill Dew Point Humidity Wind Precip. Elev Updated Type
                   

Watches & Warnings

There are currently no watches in effect.